A- A+ FrançaisEnglishEspañol中国

Services sur Internet Soldes sur Internet Des idées de cadeaux Météo Météo aéro

La météo à : Autours de vous Tarbes-Lourdes-PyrénéesVienne-RenentinParis-Charles-De-Gaulle Biscarrosse-Parentis

manche à air

La météo aéronautique pour les pilotes, la préparation du vol avec les METAR (METeorological Aerodrome Report, message d'observation des conditions météorologiques pour l'aviation) et Les TAF (Terminal Aerodrome Forecast : message de prévision à court terme des conditions météorologiques pour l'aviation). Et les autres ressources comme les VAC (Visual Approch Chart) et les NOTAM (Notice To Airman) pour préprer les vols.

Aéroport Stockholm Bronna (Suède) / OACI ESSB/ IATA BMA

L'altitude de l'aéroport Stockholm Bronna est de 14 m = 46 ft. Il est situé à proximité de Stockholm (Suède). La météo générale à 5 jours est disponible pour Sundbybergs Kommun situé à 1.2 km.

METAR de l'aéroport Stockholm Bronna - ESSB

ESSB 060920Z 22009KT 9999 BKN006 06/06 Q0985 R12/29//59

Décodage du METAR de l'aéroport Stockholm Bronna (SE)

METAR émis par ESSB le vendredi 6 décembre 2019 à 09:20 heure TU. Attention ce METAR est obsolète car il a été émis il y a 11 heure et 52 minutes.

La visibilité est de supérieure à 10 km = supérieure à 6.2 sm.

La température est de 6°C = 43 °F et le point rosée est de 6°C = 43 °F . Ce qui correspond à 100% d'humidité relative.

Le QNH est de 985 hPa = 29.09 inHg

Vent de 9 kt = 17 km/h, orienté à 220°.

Nuages : Couverture nuageuse fragmentée à 600 ft = 180 mètres.

R12/29//59

TAF de l'aéroport Stockholm Bronna - ESSB

ESSB 060830Z 0609/0618 25012KT 9999 BKN006 TEMPO 0609/0613 SCT008 BKN020

ESSB 060830Z 0609/0618 25012KT 9999 couverture nuageuse fragmentée à 006 temporairement 0609/0613 nuages épars à 008 couverture nuageuse fragmentée à 020

Aéroport à proximité de Stockholm Bronna

Météo générale à 5 jours à Sundbybergs Kommun (1.2 km)Aéroport Stockholm Arlanda (33 km)Aéroport Norrtalje (60 km)Aéroport Uppsala (64 km)Aéroport Eskiltuna (70 km)Aéroport Vastervas Hasslo (78 km)Aéroport Stockholm Skavsta (86 km)

VAC de l'aéroport Stockholm Bronna - ESSB

La carte d'approche à vue (VAC Visual Approah Chart) est fournie sans aucune garantie de son actualité. Le pilote est le seul responsable de la vérification de sa validité avant de l'utiliser opérationnellement pour préparer un vol ou l'utiliser lors de sa navigation.

VAC de ESSB

Vue aérienne de l'aéroport Stockholm Bronna

NOTAM de l'aéroport Stockholm Bronna

Les NOTAM sont fournis sans aucune garantie de leur actualité. Le pilote est le seul responsable de la vérification de sa validité avant de l'utiliser opérationnellement pour préparer un vol ou l'utiliser lors de sa navigation.

Pas de NOTAM

Sources des données